createdAt,value
2022-11-19T00:02:05.542Z,14.75
2022-11-19T00:04:33.813Z,14.69
2022-11-19T00:07:03.328Z,14.74
2022-11-19T00:09:31.533Z,14.68
2022-11-19T00:12:17.294Z,14.66
2022-11-19T00:14:45.815Z,14.60
2022-11-19T00:17:13.903Z,14.60
2022-11-19T00:19:42.097Z,14.53
2022-11-19T00:22:11.642Z,14.44
2022-11-19T00:24:40.306Z,14.41
2022-11-19T00:27:08.520Z,14.34
2022-11-19T00:29:36.599Z,14.28
2022-11-19T00:32:04.890Z,14.21
2022-11-19T00:34:33.008Z,14.13
2022-11-19T00:37:02.172Z,14.07
2022-11-19T00:39:31.777Z,14.00
2022-11-19T00:41:59.887Z,14.03
2022-11-19T00:44:32.596Z,14.03
2022-11-19T00:47:03.886Z,14.02
2022-11-19T00:49:32.024Z,14.12
2022-11-19T00:52:00.152Z,14.23
2022-11-19T00:54:28.318Z,14.24
2022-11-19T00:56:57.875Z,14.34
2022-11-19T00:59:26.019Z,14.33
2022-11-19T01:01:54.295Z,14.39
2022-11-19T01:04:22.474Z,14.34
2022-11-19T01:06:50.682Z,14.35
2022-11-19T01:09:19.085Z,14.43
2022-11-19T01:11:47.550Z,14.43
2022-11-19T01:14:17.111Z,14.49
2022-11-19T01:16:45.201Z,14.47
2022-11-19T01:19:16.486Z,14.51
2022-11-19T01:21:44.968Z,14.55
2022-11-19T01:24:13.190Z,14.61
2022-11-19T01:26:45.610Z,14.56
2022-11-19T01:29:14.427Z,14.66
2022-11-19T01:31:44.105Z,14.73
2022-11-19T01:34:12.355Z,14.68
2022-11-19T01:36:40.454Z,14.79
2022-11-19T01:39:08.744Z,14.78
2022-11-19T01:41:36.912Z,14.76
2022-11-19T01:44:07.496Z,14.76
2022-11-19T01:46:39.782Z,14.65
2022-11-19T01:49:13.999Z,14.64
2022-11-19T01:51:48.418Z,14.53
2022-11-19T01:54:24.420Z,14.46
2022-11-19T01:56:53.171Z,14.48
2022-11-19T01:59:22.152Z,14.58
2022-11-19T02:01:50.551Z,14.51
2022-11-19T02:04:22.006Z,14.44
2022-11-19T02:06:50.242Z,14.39
2022-11-19T02:09:18.573Z,14.32
2022-11-19T02:12:14.625Z,14.33
2022-11-19T02:15:01.355Z,14.32
2022-11-19T02:17:44.308Z,14.41
2022-11-19T02:20:42.868Z,14.37
2022-11-19T02:23:45.706Z,14.21
2022-11-19T02:26:51.232Z,14.22
2022-11-19T02:29:43.658Z,14.26
2022-11-19T02:32:17.288Z,14.25
2022-11-19T02:34:50.406Z,14.21
2022-11-19T02:37:26.074Z,14.23
2022-11-19T02:39:59.238Z,14.30
2022-11-19T02:42:32.237Z,14.34
2022-11-19T02:45:04.970Z,14.29
2022-11-19T02:47:38.449Z,14.23
2022-11-19T02:50:12.367Z,14.28
2022-11-19T02:52:41.571Z,14.34
2022-11-19T02:55:13.738Z,14.32
2022-11-19T02:57:43.648Z,14.32
2022-11-19T03:00:31.215Z,14.48
2022-11-19T03:03:23.192Z,14.36
2022-11-19T03:05:55.558Z,14.41
2022-11-19T03:08:24.065Z,14.33
2022-11-19T03:11:02.486Z,14.32
2022-11-19T03:13:55.152Z,14.22
2022-11-19T03:16:45.283Z,14.12
2022-11-19T03:19:29.072Z,14.12
2022-11-19T03:22:01.417Z,14.15
2022-11-19T03:24:33.880Z,14.19
2022-11-19T03:27:10.038Z,14.12
2022-11-19T03:29:42.896Z,14.14
2022-11-19T03:32:16.156Z,14.15
2022-11-19T03:34:49.729Z,14.13
2022-11-19T03:37:21.356Z,14.09
2022-11-19T03:39:52.551Z,13.92
2022-11-19T03:42:23.198Z,13.86
2022-11-19T03:44:55.826Z,13.83
2022-11-19T03:47:27.649Z,13.73
2022-11-19T03:50:02.190Z,13.67
2022-11-19T03:52:30.576Z,13.70
2022-11-19T03:54:58.933Z,13.74
2022-11-19T03:57:28.531Z,13.74
2022-11-19T03:59:56.695Z,13.83
2022-11-19T04:02:24.832Z,13.88
2022-11-19T04:04:52.948Z,13.94
2022-11-19T04:07:24.274Z,14.17
2022-11-19T04:09:52.536Z,14.22
2022-11-19T04:12:23.403Z,14.43
2022-11-19T04:14:52.208Z,14.54
2022-11-19T04:17:21.286Z,14.58
2022-11-19T04:19:49.484Z,14.54
2022-11-19T04:22:17.679Z,14.66
2022-11-19T04:24:47.369Z,14.78
2022-11-19T04:27:15.630Z,14.85
2022-11-19T04:29:43.793Z,14.88
2022-11-19T04:32:12.050Z,14.87
2022-11-19T04:34:40.114Z,14.91
2022-11-19T04:37:08.352Z,15.00
2022-11-19T04:39:36.477Z,15.02
2022-11-19T04:42:06.260Z,15.05
2022-11-19T04:44:34.386Z,14.99
2022-11-19T04:47:02.567Z,14.94
2022-11-19T04:49:30.603Z,14.93
2022-11-19T04:51:58.760Z,14.93
2022-11-19T04:54:26.927Z,14.92
2022-11-19T04:56:54.996Z,14.90
2022-11-19T04:59:24.462Z,14.87
2022-11-19T05:01:53.022Z,14.81
2022-11-19T05:04:21.218Z,14.82
2022-11-19T05:06:49.770Z,14.84
2022-11-19T05:09:18.225Z,14.71
2022-11-19T05:11:46.652Z,14.71
2022-11-19T05:14:14.885Z,14.73
2022-11-19T05:16:44.433Z,14.59
2022-11-19T05:19:12.575Z,14.61
2022-11-19T05:21:40.636Z,14.59
2022-11-19T05:24:09.475Z,14.56
2022-11-19T05:26:37.572Z,14.58
2022-11-19T05:29:05.713Z,14.59
2022-11-19T05:31:33.836Z,14.64
2022-11-19T05:34:03.334Z,14.62
2022-11-19T05:36:31.429Z,14.68
2022-11-19T05:38:59.772Z,14.64
2022-11-19T05:41:27.864Z,14.54
2022-11-19T05:43:56.202Z,14.50
2022-11-19T05:46:24.366Z,14.51
2022-11-19T05:48:52.446Z,14.54
2022-11-19T05:51:21.915Z,14.54
2022-11-19T05:53:50.177Z,14.48
2022-11-19T05:56:18.424Z,14.45
2022-11-19T05:58:46.607Z,14.58
2022-11-19T06:01:15.430Z,14.61
2022-11-19T06:03:43.609Z,14.76
2022-11-19T06:06:11.706Z,14.85
2022-11-19T06:08:41.621Z,14.97
2022-11-19T06:11:30.209Z,15.01
2022-11-19T06:13:58.281Z,14.91
2022-11-19T06:16:26.623Z,14.84
2022-11-19T06:18:54.932Z,14.89
2022-11-19T06:21:23.342Z,14.83
2022-11-19T06:23:52.791Z,15.00
2022-11-19T06:26:25.722Z,15.12
2022-11-19T06:28:54.419Z,15.24
2022-11-19T06:31:23.413Z,15.32
2022-11-19T06:33:53.527Z,15.28
2022-11-19T06:36:21.977Z,15.23
2022-11-19T06:38:50.284Z,15.21
2022-11-19T06:41:19.823Z,15.22
2022-11-19T06:43:47.984Z,15.29
2022-11-19T06:46:16.564Z,15.36
2022-11-19T06:48:44.804Z,15.49
2022-11-19T06:51:12.890Z,15.68
2022-11-19T06:53:41.075Z,15.82
2022-11-19T06:56:09.696Z,15.84
2022-11-19T06:58:39.383Z,15.84
2022-11-19T07:01:07.630Z,16.01
2022-11-19T07:03:35.753Z,16.17
2022-11-19T07:06:05.757Z,16.23
2022-11-19T07:08:35.724Z,16.27
2022-11-19T07:11:26.057Z,16.38
2022-11-19T07:14:00.876Z,16.56
2022-11-19T07:16:30.839Z,16.62
2022-11-19T07:19:00.227Z,16.53
2022-11-19T07:21:28.669Z,16.43
2022-11-19T07:23:57.301Z,16.20
2022-11-19T07:26:26.136Z,16.19
2022-11-19T07:28:56.876Z,16.15
2022-11-19T07:31:27.627Z,16.18
2022-11-19T07:33:55.748Z,16.20
2022-11-19T07:36:24.042Z,16.25
2022-11-19T07:38:52.498Z,16.27
2022-11-19T07:41:38.277Z,16.28
2022-11-19T07:44:08.005Z,16.12
2022-11-19T07:46:36.508Z,16.01
2022-11-19T07:49:05.552Z,16.16
2022-11-19T07:51:33.760Z,16.05
2022-11-19T07:54:02.257Z,16.24
2022-11-19T07:56:30.369Z,16.25
2022-11-19T07:59:01.020Z,16.24
2022-11-19T08:01:30.703Z,16.34
2022-11-19T08:03:58.812Z,16.40
2022-11-19T08:06:29.956Z,16.54
2022-11-19T08:08:58.524Z,16.77
2022-11-19T08:11:26.833Z,16.90
2022-11-19T08:13:55.285Z,16.88
2022-11-19T08:16:41.073Z,16.96
2022-11-19T08:19:15.189Z,16.90
2022-11-19T08:21:45.376Z,16.92
2022-11-19T08:24:14.855Z,16.89
2022-11-19T08:26:43.940Z,17.06
2022-11-19T08:29:16.470Z,17.25
2022-11-19T08:31:47.166Z,17.28
2022-11-19T08:34:17.575Z,17.08
2022-11-19T08:36:46.030Z,17.24
2022-11-19T08:39:14.264Z,17.21
2022-11-19T08:41:59.651Z,17.29
2022-11-19T08:44:27.782Z,17.27
2022-11-19T08:46:55.830Z,17.08
2022-11-19T08:49:25.372Z,17.18
2022-11-19T08:51:53.978Z,17.39
2022-11-19T08:54:22.492Z,17.54
2022-11-19T08:56:50.810Z,17.59
2022-11-19T08:59:21.798Z,17.28
2022-11-19T09:01:50.483Z,16.94
2022-11-19T09:04:19.245Z,16.62
2022-11-19T09:06:48.928Z,16.51
2022-11-19T09:09:17.043Z,16.25
2022-11-19T09:11:45.189Z,16.07
2022-11-19T09:14:13.281Z,15.99
2022-11-19T09:16:41.422Z,15.97
2022-11-19T09:19:09.511Z,15.84
2022-11-19T09:21:37.653Z,15.73
2022-11-19T09:24:07.849Z,15.81
2022-11-19T09:26:36.714Z,15.74
2022-11-19T09:29:04.795Z,15.81
2022-11-19T09:31:32.909Z,15.90
2022-11-19T09:34:01.022Z,16.04
2022-11-19T09:36:29.144Z,16.18
2022-11-19T09:38:58.657Z,16.25
2022-11-19T09:41:48.593Z,16.51
2022-11-19T09:44:30.542Z,16.59
2022-11-19T09:47:08.370Z,16.66
2022-11-19T09:49:43.934Z,16.62
2022-11-19T09:52:15.768Z,16.62
2022-11-19T09:54:49.692Z,16.66
2022-11-19T09:57:29.383Z,16.73
2022-11-19T10:00:01.352Z,16.65
2022-11-19T10:02:30.700Z,16.68
2022-11-19T10:05:00.037Z,16.58
2022-11-19T10:07:39.437Z,16.53
2022-11-19T10:10:26.023Z,16.56
2022-11-19T10:13:19.668Z,16.46
2022-11-19T10:16:00.107Z,16.50
2022-11-19T10:18:39.044Z,16.58
2022-11-19T10:21:19.432Z,16.61
2022-11-19T10:23:54.770Z,16.55
2022-11-19T10:26:28.334Z,16.56
2022-11-19T10:28:59.446Z,16.64
2022-11-19T10:31:34.081Z,16.77
2022-11-19T10:34:08.758Z,16.87
2022-11-19T10:36:43.605Z,16.98
2022-11-19T10:39:21.983Z,17.13
2022-11-19T10:41:55.278Z,17.28
2022-11-19T10:44:38.397Z,17.39
2022-11-19T10:47:08.149Z,17.38
2022-11-19T10:49:41.159Z,17.36
2022-11-19T10:52:18.585Z,17.33
2022-11-19T10:54:48.729Z,17.23
2022-11-19T10:57:20.363Z,17.20
2022-11-19T10:59:52.445Z,17.31
2022-11-19T11:02:28.483Z,17.29
2022-11-19T11:05:12.281Z,17.33
2022-11-19T11:07:50.389Z,17.40
2022-11-19T11:10:31.758Z,17.50
2022-11-19T11:13:25.154Z,17.58
2022-11-19T11:15:55.468Z,17.64
2022-11-19T11:18:31.423Z,17.63
2022-11-19T11:20:59.766Z,17.58
2022-11-19T11:23:30.528Z,17.62
2022-11-19T11:26:07.316Z,17.66
2022-11-19T11:28:36.715Z,17.85
2022-11-19T11:31:10.281Z,17.96
2022-11-19T11:33:41.542Z,18.05
2022-11-19T11:36:12.713Z,18.24
2022-11-19T11:38:43.916Z,18.26
2022-11-19T11:44:05.180Z,18.20
2022-11-19T11:46:47.854Z,18.14
2022-11-19T11:49:26.272Z,18.06
2022-11-19T11:52:08.442Z,18.05
2022-11-19T11:54:37.460Z,18.11
2022-11-19T11:57:19.801Z,18.24
2022-11-19T11:59:47.978Z,18.22
2022-11-19T12:02:30.572Z,18.23
2022-11-19T12:05:02.532Z,18.26
2022-11-19T12:08:12.734Z,18.13
2022-11-19T12:10:47.598Z,18.12
2022-11-19T12:13:43.386Z,18.08
2022-11-19T12:16:19.710Z,18.11
2022-11-19T12:19:03.936Z,18.16
2022-11-19T12:21:43.681Z,18.17
2022-11-19T12:24:23.978Z,18.25
2022-11-19T12:27:06.849Z,18.30
2022-11-19T12:29:42.500Z,18.28
2022-11-19T12:32:22.570Z,18.32
2022-11-19T12:35:26.514Z,18.45
2022-11-19T12:38:16.583Z,18.41
2022-11-19T12:40:55.243Z,18.32
2022-11-19T12:43:44.018Z,18.28
2022-11-19T12:46:21.626Z,18.25
2022-11-19T12:49:04.241Z,18.31
2022-11-19T12:51:46.293Z,18.34
2022-11-19T12:54:34.411Z,18.38
2022-11-19T12:57:17.680Z,18.42
2022-11-19T13:00:03.226Z,18.47
2022-11-19T13:02:36.427Z,18.46
2022-11-19T13:05:08.520Z,18.43
2022-11-19T13:07:42.666Z,18.36
2022-11-19T13:10:19.073Z,18.21
2022-11-19T13:12:51.192Z,18.20
2022-11-19T13:15:22.377Z,18.21
2022-11-19T13:17:53.058Z,18.18
2022-11-19T13:20:27.809Z,18.12
2022-11-19T13:23:00.889Z,18.05
2022-11-19T13:25:33.124Z,17.98
2022-11-19T13:28:04.693Z,17.87
2022-11-19T13:30:35.547Z,17.78
2022-11-19T13:33:14.009Z,17.71
2022-11-19T13:35:48.636Z,17.63
2022-11-19T13:38:25.028Z,17.52
2022-11-19T13:41:00.891Z,17.44
2022-11-19T13:43:46.378Z,17.37
2022-11-19T13:46:23.159Z,17.25
2022-11-19T13:48:57.951Z,17.14
2022-11-19T13:51:30.501Z,17.15
2022-11-19T13:54:03.736Z,17.13
2022-11-19T13:56:45.442Z,17.13
2022-11-19T13:59:30.941Z,17.11
2022-11-19T14:02:21.260Z,17.09
2022-11-19T14:05:09.665Z,16.95
2022-11-19T14:08:00.310Z,16.90
2022-11-19T14:10:37.606Z,16.82
2022-11-19T14:13:23.799Z,16.84
2022-11-19T14:16:23.618Z,16.81
2022-11-19T14:19:12.885Z,16.68
2022-11-19T14:22:10.243Z,16.61
2022-11-19T14:25:13.175Z,16.55
2022-11-19T14:27:43.145Z,16.47
2022-11-19T14:30:17.364Z,16.40
2022-11-19T14:32:48.935Z,16.34
2022-11-19T14:35:36.776Z,16.24
2022-11-19T14:38:36.523Z,16.18
2022-11-19T14:41:18.974Z,16.20
2022-11-19T14:44:11.595Z,16.21
2022-11-19T14:46:45.096Z,16.27
2022-11-19T14:49:33.606Z,16.18
2022-11-19T14:52:02.867Z,16.18
2022-11-19T14:54:39.427Z,16.15
2022-11-19T14:57:26.943Z,15.98
2022-11-19T15:00:00.071Z,15.83
2022-11-19T15:02:32.890Z,15.70
2022-11-19T15:05:08.648Z,15.66
2022-11-19T15:07:49.031Z,15.59
2022-11-19T15:10:33.351Z,15.62
2022-11-19T15:13:25.797Z,15.54
2022-11-19T15:15:58.799Z,15.57
2022-11-19T15:18:55.107Z,15.51
2022-11-19T15:21:51.270Z,15.42
2022-11-19T15:24:29.595Z,15.35
2022-11-19T15:27:05.739Z,15.33
2022-11-19T15:29:57.586Z,15.39
2022-11-19T15:32:41.243Z,15.37
2022-11-19T15:35:36.786Z,15.42
2022-11-19T15:38:18.548Z,15.33
2022-11-19T15:40:49.624Z,15.24
2022-11-19T15:43:25.267Z,15.20
2022-11-19T15:45:57.715Z,15.29
2022-11-19T15:48:36.850Z,15.46
2022-11-19T15:51:08.301Z,15.48
2022-11-19T15:53:36.573Z,15.33
2022-11-19T15:56:08.717Z,15.24
2022-11-19T15:58:40.926Z,15.19
2022-11-19T16:01:10.208Z,15.11
2022-11-19T16:03:40.662Z,15.05
2022-11-19T16:06:11.780Z,15.06
2022-11-19T16:08:40.106Z,15.10
2022-11-19T16:11:28.007Z,14.97
2022-11-19T16:14:13.864Z,14.91
2022-11-19T16:16:59.245Z,14.91
2022-11-19T16:19:28.690Z,14.83
2022-11-19T16:22:00.948Z,14.62
2022-11-19T16:24:48.589Z,14.49
2022-11-19T16:27:25.214Z,14.43
2022-11-19T16:29:53.415Z,14.41
2022-11-19T16:32:23.509Z,14.38
2022-11-19T16:34:53.166Z,14.36
2022-11-19T16:37:23.190Z,14.35
2022-11-19T16:39:53.313Z,14.38
2022-11-19T16:42:26.922Z,14.33
2022-11-19T16:44:57.086Z,14.27
2022-11-19T16:47:30.210Z,14.25
2022-11-19T16:50:06.352Z,14.27
2022-11-19T16:52:39.549Z,14.26
2022-11-19T16:55:30.147Z,14.39
2022-11-19T16:58:01.126Z,14.42
2022-11-19T17:00:33.706Z,14.43
2022-11-19T17:03:16.609Z,14.42
2022-11-19T17:05:48.913Z,14.40
2022-11-19T17:08:23.348Z,14.33
2022-11-19T17:11:11.455Z,14.20
2022-11-19T17:13:39.705Z,14.08
2022-11-19T17:16:18.970Z,14.11
2022-11-19T17:18:47.112Z,14.15
2022-11-19T17:21:27.166Z,14.08
2022-11-19T17:23:55.763Z,14.07
2022-11-19T17:26:27.452Z,14.15
2022-11-19T17:29:09.152Z,14.08
2022-11-19T17:31:37.544Z,14.11
2022-11-19T17:34:12.437Z,14.19
2022-11-19T17:36:42.537Z,14.24
2022-11-19T17:39:12.136Z,14.07
2022-11-19T17:41:58.466Z,14.13
2022-11-19T17:44:35.717Z,14.11
2022-11-19T17:47:07.430Z,14.00
2022-11-19T17:49:47.008Z,14.01
2022-11-19T17:52:23.701Z,13.99
2022-11-19T17:54:52.611Z,14.01
2022-11-19T17:57:20.779Z,14.00
2022-11-19T17:59:48.887Z,14.02
2022-11-19T18:02:19.544Z,13.98
2022-11-19T18:04:48.930Z,13.94
2022-11-19T18:07:17.267Z,13.95
2022-11-19T18:09:46.778Z,13.98
2022-11-19T18:12:17.921Z,13.95
2022-11-19T18:14:46.461Z,13.87
2022-11-19T18:17:15.513Z,13.86
2022-11-19T18:19:43.682Z,13.71
2022-11-19T18:22:18.513Z,13.63
2022-11-19T18:24:49.909Z,13.52
2022-11-19T18:27:18.631Z,13.50
2022-11-19T18:29:46.748Z,13.57
2022-11-19T18:32:16.977Z,13.44
2022-11-19T18:34:46.404Z,13.34
2022-11-19T18:37:14.896Z,13.25
2022-11-19T18:39:43.082Z,13.32
2022-11-19T18:42:13.227Z,13.22
2022-11-19T18:44:43.441Z,13.27
2022-11-19T18:47:13.845Z,13.14
2022-11-19T18:49:42.633Z,13.12
2022-11-19T18:52:15.057Z,13.13
2022-11-19T18:54:43.264Z,13.12
2022-11-19T18:57:13.573Z,13.07
2022-11-19T18:59:41.920Z,13.06
2022-11-19T19:02:11.016Z,13.00
2022-11-19T19:04:39.236Z,13.00
2022-11-19T19:07:07.375Z,12.93
2022-11-19T19:09:37.431Z,12.89
2022-11-19T19:12:21.613Z,12.86
2022-11-19T19:14:52.629Z,12.83
2022-11-19T19:17:21.131Z,12.74
2022-11-19T19:19:49.867Z,12.72
2022-11-19T19:22:18.394Z,12.74
2022-11-19T19:24:47.147Z,12.75
2022-11-19T19:27:15.974Z,12.72
2022-11-19T19:29:44.126Z,12.70
2022-11-19T19:32:13.587Z,12.70
2022-11-19T19:34:41.706Z,12.62
2022-11-19T19:37:09.982Z,12.72
2022-11-19T19:39:38.060Z,12.62
2022-11-19T19:42:06.464Z,12.57
2022-11-19T19:44:34.619Z,12.55
2022-11-19T19:47:02.840Z,12.51
2022-11-19T19:49:37.494Z,12.49
2022-11-19T19:52:07.196Z,12.52
2022-11-19T19:54:35.330Z,12.50
2022-11-19T19:57:03.823Z,12.54
2022-11-19T19:59:31.959Z,12.56
2022-11-19T20:02:00.171Z,12.40
2022-11-19T20:04:28.394Z,12.57
2022-11-19T20:06:57.973Z,12.69
2022-11-19T20:09:26.554Z,12.65
2022-11-19T20:11:55.511Z,12.63
2022-11-19T20:14:23.643Z,12.54
2022-11-19T20:16:51.790Z,12.53
2022-11-19T20:19:19.967Z,12.68
2022-11-19T20:21:48.242Z,12.70
2022-11-19T20:24:18.786Z,12.67
2022-11-19T20:26:47.059Z,12.77
2022-11-19T20:29:17.758Z,12.83
2022-11-19T20:31:48.040Z,12.85
2022-11-19T20:34:17.373Z,12.95
2022-11-19T20:36:45.595Z,12.97
2022-11-19T20:39:13.990Z,13.02
2022-11-19T20:42:00.902Z,13.12
2022-11-19T20:44:29.008Z,13.11
2022-11-19T20:46:58.897Z,13.25
2022-11-19T20:49:29.126Z,13.23
2022-11-19T20:51:57.703Z,13.17
2022-11-19T20:54:26.802Z,13.34
2022-11-19T20:56:57.807Z,13.50
2022-11-19T20:59:26.634Z,13.52
2022-11-19T21:01:56.123Z,13.38
2022-11-19T21:04:25.584Z,13.41
2022-11-19T21:06:54.059Z,13.65
2022-11-19T21:09:22.695Z,13.68
2022-11-19T21:11:51.136Z,13.68
2022-11-19T21:14:20.883Z,13.62
2022-11-19T21:16:49.523Z,13.60
2022-11-19T21:19:17.959Z,13.62
2022-11-19T21:21:46.068Z,13.63
2022-11-19T21:24:14.229Z,13.69
2022-11-19T21:26:42.625Z,13.65
2022-11-19T21:29:10.824Z,13.77
2022-11-19T21:31:42.238Z,13.65
2022-11-19T21:34:12.348Z,13.64
2022-11-19T21:36:41.976Z,13.68
2022-11-19T21:39:11.235Z,13.77
2022-11-19T21:41:39.455Z,13.84
2022-11-19T21:44:08.888Z,13.91
2022-11-19T21:46:37.579Z,13.95
2022-11-19T21:49:07.518Z,14.00
2022-11-19T21:51:36.617Z,13.95
2022-11-19T21:54:09.598Z,13.90
2022-11-19T21:56:38.943Z,13.91
2022-11-19T21:59:07.904Z,13.97
2022-11-19T22:01:36.488Z,14.05
2022-11-19T22:04:06.318Z,14.02
2022-11-19T22:06:36.303Z,14.03
2022-11-19T22:09:04.640Z,14.25
2022-11-19T22:11:32.979Z,14.17
2022-11-19T22:14:02.897Z,14.18
2022-11-19T22:16:32.695Z,14.13
2022-11-19T22:19:00.935Z,14.22
2022-11-19T22:21:30.659Z,14.27
2022-11-19T22:23:59.496Z,14.31
2022-11-19T22:26:28.031Z,14.35
2022-11-19T22:28:56.675Z,14.28
2022-11-19T22:31:26.139Z,14.29
2022-11-19T22:33:55.626Z,14.28
2022-11-19T22:36:24.925Z,14.18
2022-11-19T22:38:54.482Z,14.05
2022-11-19T22:41:23.925Z,13.98
2022-11-19T22:43:52.722Z,13.99
2022-11-19T22:46:21.554Z,13.92
2022-11-19T22:48:49.961Z,13.93
2022-11-19T22:51:20.564Z,13.87
2022-11-19T22:53:49.511Z,13.80
2022-11-19T22:56:22.127Z,13.72
2022-11-19T22:58:51.025Z,13.70
2022-11-19T23:01:22.520Z,13.88
2022-11-19T23:03:50.968Z,13.91
2022-11-19T23:06:19.627Z,13.86
2022-11-19T23:08:48.033Z,13.83
2022-11-19T23:11:40.367Z,13.76
2022-11-19T23:14:09.110Z,13.77
2022-11-19T23:16:38.243Z,13.78
2022-11-19T23:19:07.180Z,13.79
2022-11-19T23:21:35.562Z,13.87
2022-11-19T23:24:03.765Z,14.08
2022-11-19T23:26:34.492Z,14.24
2022-11-19T23:29:02.725Z,14.26
2022-11-19T23:31:32.542Z,14.38
2022-11-19T23:34:00.924Z,14.42
2022-11-19T23:36:31.161Z,14.39
2022-11-19T23:38:59.989Z,14.54
2022-11-19T23:41:28.813Z,14.69
2022-11-19T23:43:58.370Z,14.86
2022-11-19T23:46:28.504Z,15.00
2022-11-19T23:48:58.009Z,15.05
2022-11-19T23:51:27.869Z,15.20
2022-11-19T23:53:56.665Z,15.34
2022-11-19T23:56:26.245Z,15.53
2022-11-19T23:58:54.643Z,15.60
